createdAt,value
2019-04-05T00:01:17.046Z,55.70
2019-04-05T00:03:47.086Z,55.80
2019-04-05T00:06:17.147Z,55.90
2019-04-05T00:08:47.839Z,55.90
2019-04-05T00:11:17.928Z,55.90
2019-04-05T00:13:48.006Z,55.90
2019-04-05T00:16:17.917Z,56.20
2019-04-05T00:18:48.037Z,56.20
2019-04-05T00:21:18.273Z,56.20
2019-04-05T00:23:48.546Z,56.30
2019-04-05T00:26:18.823Z,56.10
2019-04-05T00:28:51.610Z,56.40
2019-04-05T00:31:20.787Z,56.50
2019-04-05T00:33:51.022Z,56.80
2019-04-05T00:36:21.163Z,56.70
2019-04-05T00:38:52.051Z,56.90
2019-04-05T00:41:22.078Z,57.10
2019-04-05T00:43:52.264Z,57.10
2019-04-05T00:46:22.248Z,57.20
2019-04-05T00:48:52.422Z,57.20
2019-04-05T00:51:22.825Z,57.60
2019-04-05T00:53:53.001Z,57.30
2019-04-05T00:56:23.092Z,57.60
2019-04-05T00:58:54.856Z,57.60
2019-04-05T01:01:25.100Z,58.00
2019-04-05T01:03:56.374Z,57.70
2019-04-05T01:06:26.554Z,58.10
2019-04-05T01:08:56.758Z,58.30
2019-04-05T01:11:26.908Z,58.40
2019-04-05T01:13:58.652Z,58.50
2019-04-05T01:16:30.129Z,58.70
2019-04-05T01:19:00.342Z,58.60
2019-04-05T01:21:34.710Z,58.60
2019-04-05T01:24:05.555Z,58.70
2019-04-05T01:26:38.858Z,58.80
2019-04-05T01:29:08.983Z,59.00
2019-04-05T01:31:41.007Z,59.20
2019-04-05T01:34:11.154Z,59.20
2019-04-05T01:36:42.974Z,59.40
2019-04-05T01:39:14.514Z,59.10
2019-04-05T01:41:44.934Z,59.30
2019-04-05T01:44:15.608Z,59.40
2019-04-05T01:46:45.639Z,59.40
2019-04-05T01:49:15.678Z,59.50
2019-04-05T01:51:45.862Z,59.80
2019-04-05T01:54:16.002Z,59.70
2019-04-05T01:56:46.162Z,59.80
2019-04-05T01:59:16.402Z,60.10
2019-04-05T02:01:46.608Z,60.40
2019-04-05T02:04:16.816Z,60.50
2019-04-05T02:06:46.981Z,60.50
2019-04-05T02:09:17.316Z,60.60
2019-04-05T02:11:47.494Z,60.30
2019-04-05T02:14:17.794Z,60.20
2019-04-05T02:16:48.074Z,60.80
2019-04-05T02:19:18.203Z,60.60
2019-04-05T02:21:48.280Z,60.50
2019-04-05T02:24:18.471Z,60.80
2019-04-05T02:26:48.736Z,60.90
2019-04-05T02:29:18.942Z,60.60
2019-04-05T02:31:49.103Z,60.70
2019-04-05T02:34:19.263Z,60.90
2019-04-05T02:36:52.376Z,60.80
2019-04-05T02:39:22.528Z,61.00
2019-04-05T02:41:54.072Z,61.40
2019-04-05T02:44:25.342Z,61.50
2019-04-05T02:46:56.630Z,61.40
2019-04-05T02:49:30.334Z,61.90
2019-04-05T02:52:02.862Z,62.30
2019-04-05T02:54:34.695Z,62.40
2019-04-05T02:57:05.192Z,62.70
2019-04-05T02:59:35.583Z,62.60
2019-04-05T03:02:06.279Z,62.90
2019-04-05T03:04:36.495Z,63.20
2019-04-05T03:07:06.899Z,63.30
2019-04-05T03:10:02.267Z,63.50
2019-04-05T03:12:33.051Z,63.80
2019-04-05T03:15:05.159Z,64.20
2019-04-05T03:17:37.502Z,64.80
2019-04-05T03:20:07.922Z,64.10
2019-04-05T03:22:39.944Z,65.40
2019-04-05T03:25:10.322Z,64.80
2019-04-05T03:27:40.775Z,65.00
2019-04-05T03:30:11.084Z,65.70
2019-04-05T03:32:41.877Z,66.40
2019-04-05T03:35:12.076Z,66.30
2019-04-05T03:37:42.417Z,66.20
2019-04-05T03:40:12.862Z,66.30
2019-04-05T03:42:44.644Z,66.30
2019-04-05T03:45:14.956Z,66.60
2019-04-05T03:47:47.112Z,66.70
2019-04-05T03:50:17.635Z,66.80
2019-04-05T03:52:47.794Z,66.80
2019-04-05T03:55:18.549Z,66.70
2019-04-05T03:57:50.097Z,67.40
2019-04-05T04:00:20.364Z,66.80
2019-04-05T04:02:50.483Z,67.00
2019-04-05T04:05:20.824Z,67.50
2019-04-05T04:07:51.005Z,67.60
2019-04-05T04:10:22.276Z,67.80
2019-04-05T04:12:52.502Z,67.80
2019-04-05T04:15:25.196Z,67.80
2019-04-05T04:17:58.588Z,67.60
2019-04-05T04:20:39.891Z,68.00
2019-04-05T04:23:10.779Z,68.50
2019-04-05T04:25:41.811Z,68.60
2019-04-05T04:28:12.319Z,69.10
2019-04-05T04:30:43.145Z,68.80
2019-04-05T04:33:13.547Z,69.10
2019-04-05T04:35:43.882Z,69.60
2019-04-05T04:38:15.471Z,69.60
2019-04-05T04:40:46.832Z,70.00
2019-04-05T04:43:16.940Z,69.90
2019-04-05T04:45:47.080Z,70.10
2019-04-05T04:48:17.931Z,69.70
2019-04-05T04:50:48.454Z,69.80
2019-04-05T04:53:18.677Z,70.10
2019-04-05T04:55:48.922Z,70.10
2019-04-05T04:58:19.276Z,71.30
2019-04-05T05:00:50.920Z,71.20
2019-04-05T05:03:20.964Z,70.80
2019-04-05T05:05:51.165Z,70.30
2019-04-05T05:08:21.372Z,70.90
2019-04-05T05:10:51.631Z,70.60
2019-04-05T05:13:21.904Z,70.30
2019-04-05T05:15:52.103Z,69.90
2019-04-05T05:18:22.610Z,69.00
2019-04-05T05:20:52.849Z,69.00
2019-04-05T05:23:23.305Z,68.10
2019-04-05T05:25:54.608Z,67.80
2019-04-05T05:28:24.977Z,67.40
2019-04-05T05:30:55.186Z,67.00
2019-04-05T05:33:25.463Z,66.80
2019-04-05T05:35:56.116Z,66.70
2019-04-05T05:38:26.356Z,66.00
2019-04-05T05:40:56.553Z,65.90
2019-04-05T05:43:26.807Z,66.00
2019-04-05T05:45:56.964Z,65.20
2019-04-05T05:48:30.604Z,65.30
2019-04-05T05:50:59.937Z,64.70
2019-04-05T05:53:30.159Z,64.40
2019-04-05T05:56:00.396Z,64.30
2019-04-05T05:58:30.730Z,64.10
2019-04-05T06:01:00.893Z,63.90
2019-04-05T06:03:31.126Z,63.30
2019-04-05T06:06:21.586Z,61.90
2019-04-05T06:08:51.733Z,62.20
2019-04-05T06:11:22.884Z,62.60
2019-04-05T06:13:53.262Z,62.70
2019-04-05T06:16:25.056Z,61.70
2019-04-05T06:18:55.217Z,61.80
2019-04-05T06:21:25.363Z,60.80
2019-04-05T06:23:55.427Z,61.00
2019-04-05T06:26:27.177Z,61.20
2019-04-05T06:28:57.185Z,60.40
2019-04-05T06:31:27.545Z,60.50
2019-04-05T06:33:57.654Z,60.70
2019-04-05T06:36:27.903Z,59.70
2019-04-05T06:38:58.183Z,60.00
2019-04-05T06:41:28.526Z,59.50
2019-04-05T06:43:58.581Z,59.00
2019-04-05T06:46:28.853Z,58.90
2019-04-05T06:48:59.089Z,58.20
2019-04-05T06:51:29.229Z,58.60
2019-04-05T06:53:59.377Z,57.40
2019-04-05T06:56:29.529Z,57.10
2019-04-05T06:58:59.601Z,56.80
2019-04-05T07:01:29.948Z,57.10
2019-04-05T07:04:00.544Z,57.00
2019-04-05T07:06:30.743Z,57.10
2019-04-05T07:09:00.881Z,57.40
2019-04-05T07:11:32.588Z,56.60
2019-04-05T07:14:02.817Z,56.30
2019-04-05T07:16:33.040Z,56.00
2019-04-05T07:19:03.451Z,55.70
2019-04-05T07:21:33.612Z,55.30
2019-04-05T07:24:04.042Z,56.10
2019-04-05T07:26:34.199Z,55.50
2019-04-05T07:29:04.748Z,56.00
2019-04-05T07:31:34.842Z,56.00
2019-04-05T07:34:05.932Z,56.00
2019-04-05T07:36:36.225Z,55.60
2019-04-05T07:39:07.522Z,56.30
2019-04-05T07:41:38.011Z,55.50
2019-04-05T07:44:08.321Z,54.80
2019-04-05T07:46:38.366Z,54.60
2019-04-05T07:49:08.612Z,54.40
2019-04-05T07:51:39.779Z,54.40
2019-04-05T07:54:10.046Z,54.50
2019-04-05T07:56:40.167Z,54.90
2019-04-05T07:59:10.367Z,54.80
2019-04-05T08:01:42.584Z,55.00
2019-04-05T08:04:13.126Z,55.30
2019-04-05T08:06:44.260Z,55.00
2019-04-05T08:09:15.649Z,54.70
2019-04-05T08:11:47.141Z,54.30
2019-04-05T08:14:18.874Z,54.20
2019-04-05T08:16:49.242Z,54.00
2019-04-05T08:19:19.329Z,54.70
2019-04-05T08:21:49.541Z,54.10
2019-04-05T08:24:19.680Z,53.50
2019-04-05T08:26:49.770Z,54.30
2019-04-05T08:29:19.938Z,53.50
2019-04-05T08:31:50.162Z,53.10
2019-04-05T08:34:20.343Z,52.60
2019-04-05T08:36:50.543Z,53.10
2019-04-05T08:39:20.766Z,54.40
2019-04-05T08:42:38.706Z,52.90
2019-04-05T08:45:15.540Z,52.80
2019-04-05T08:47:45.715Z,52.80
2019-04-05T08:50:16.030Z,57.70
2019-04-05T08:52:46.182Z,54.30
2019-04-05T08:55:18.306Z,54.10
2019-04-05T08:57:48.810Z,53.40
2019-04-05T09:00:23.660Z,53.70
2019-04-05T09:02:53.941Z,53.10
2019-04-05T09:05:24.141Z,51.90
2019-04-05T09:07:54.247Z,52.40
2019-04-05T09:10:26.675Z,51.30
2019-04-05T09:12:57.025Z,51.80
2019-04-05T09:15:27.367Z,52.70
2019-04-05T09:17:57.955Z,51.10
2019-04-05T09:20:28.009Z,50.90
2019-04-05T09:22:58.109Z,51.10
2019-04-05T09:25:28.214Z,50.40
2019-04-05T09:27:58.163Z,50.00
2019-04-05T09:30:28.381Z,50.40
2019-04-05T09:32:58.453Z,50.30
2019-04-05T09:35:28.589Z,50.50
2019-04-05T09:37:58.793Z,50.50
2019-04-05T09:40:29.059Z,49.40
2019-04-05T09:42:59.196Z,49.00
2019-04-05T09:45:29.390Z,47.90
2019-04-05T09:47:59.491Z,48.60
2019-04-05T09:50:29.780Z,48.40
2019-04-05T09:52:59.946Z,49.20
2019-04-05T09:55:30.240Z,47.50
2019-04-05T09:58:00.473Z,47.50
2019-04-05T10:00:31.142Z,47.60
2019-04-05T10:03:01.338Z,45.90
2019-04-05T10:05:33.660Z,45.00
2019-04-05T10:08:03.714Z,43.10
2019-04-05T10:10:35.115Z,42.20
2019-04-05T10:13:05.384Z,41.00
2019-04-05T10:15:38.597Z,38.30
2019-04-05T10:18:08.609Z,36.50
2019-04-05T10:20:39.139Z,35.10
2019-04-05T10:23:09.263Z,33.30
2019-04-05T10:25:39.637Z,33.40
2019-04-05T10:28:09.783Z,31.30
2019-04-05T10:30:40.010Z,30.10
2019-04-05T10:33:10.101Z,29.80
2019-04-05T10:35:40.230Z,29.10
2019-04-05T10:38:10.447Z,27.60
2019-04-05T10:40:53.021Z,27.30
2019-04-05T10:43:23.017Z,27.60
2019-04-05T10:45:55.201Z,26.90
2019-04-05T10:48:25.467Z,26.40
2019-04-05T10:50:55.652Z,26.30
2019-04-05T10:53:25.746Z,26.20
2019-04-05T10:55:55.918Z,25.30
2019-04-05T10:58:26.229Z,25.20
2019-04-05T11:00:56.521Z,25.00
2019-04-05T11:03:26.664Z,24.10
2019-04-05T11:05:57.809Z,24.50
2019-04-05T11:08:27.919Z,25.00
2019-04-05T11:10:59.817Z,24.70
2019-04-05T11:13:29.916Z,24.20
2019-04-05T11:16:03.850Z,24.30
2019-04-05T11:18:34.994Z,24.00
2019-04-05T11:21:05.200Z,23.70
2019-04-05T11:23:35.552Z,23.50
2019-04-05T11:26:05.721Z,23.30
2019-04-05T11:28:35.841Z,23.50
2019-04-05T11:31:06.216Z,23.70
2019-04-05T11:33:36.606Z,22.70
2019-04-05T11:36:06.764Z,22.70
2019-04-05T11:38:37.169Z,23.10
2019-04-05T11:41:07.421Z,23.10
2019-04-05T11:43:39.361Z,23.20
2019-04-05T11:46:09.859Z,22.60
2019-04-05T11:48:41.419Z,22.90
2019-04-05T11:51:11.792Z,22.40
2019-04-05T11:53:41.951Z,22.60
2019-04-05T11:56:14.904Z,22.40
2019-04-05T11:58:48.603Z,22.60
2019-04-05T12:01:23.661Z,22.50
2019-04-05T12:03:54.940Z,22.60
2019-04-05T12:06:24.970Z,23.10
2019-04-05T12:08:55.086Z,23.30
2019-04-05T12:11:25.240Z,24.60
2019-04-05T12:13:55.402Z,24.40
2019-04-05T12:16:25.569Z,25.30
2019-04-05T12:18:55.552Z,26.10
2019-04-05T12:21:25.961Z,26.60
2019-04-05T12:23:56.195Z,27.60
2019-04-05T12:26:26.427Z,28.10
2019-04-05T12:28:56.553Z,28.50
2019-04-05T12:31:27.704Z,29.30
2019-04-05T12:33:57.780Z,29.50
2019-04-05T12:36:27.841Z,30.00
2019-04-05T12:38:57.948Z,30.30
2019-04-05T12:41:28.126Z,30.50
2019-04-05T12:43:58.097Z,30.90
2019-04-05T12:46:28.319Z,32.10
2019-04-05T12:48:58.390Z,31.70
2019-04-05T12:51:30.136Z,31.90
2019-04-05T12:54:00.187Z,32.20
2019-04-05T12:56:30.420Z,32.10
2019-04-05T12:59:00.409Z,32.80
2019-04-05T13:01:30.716Z,33.20
2019-04-05T13:04:00.790Z,33.90
2019-04-05T13:06:30.971Z,34.30
2019-04-05T13:09:01.042Z,33.20
2019-04-05T13:11:32.699Z,33.00
2019-04-05T13:14:02.826Z,34.90
2019-04-05T13:16:33.002Z,34.00
2019-04-05T13:19:03.156Z,34.50
2019-04-05T13:21:33.329Z,34.60
2019-04-05T13:24:04.387Z,34.60
2019-04-05T13:26:36.883Z,34.40
2019-04-05T13:29:07.190Z,34.90
2019-04-05T13:31:37.321Z,34.90
2019-04-05T13:34:07.424Z,33.90
2019-04-05T13:36:37.585Z,35.20
2019-04-05T13:39:08.782Z,34.90
2019-04-05T13:41:38.941Z,34.90
2019-04-05T13:44:08.969Z,34.90
2019-04-05T13:46:41.295Z,35.60
2019-04-05T13:49:11.341Z,35.10
2019-04-05T13:51:42.083Z,35.20
2019-04-05T13:54:12.982Z,35.80
2019-04-05T13:56:43.071Z,35.40
2019-04-05T13:59:13.102Z,35.30
2019-04-05T14:01:43.304Z,35.40
2019-04-05T14:04:13.442Z,35.60
2019-04-05T14:07:03.779Z,36.00
2019-04-05T14:09:34.212Z,36.10
2019-04-05T14:12:09.543Z,36.00
2019-04-05T14:14:41.515Z,35.30
2019-04-05T14:17:13.685Z,35.00
2019-04-05T14:19:44.158Z,34.70
2019-04-05T14:22:14.246Z,35.50
2019-04-05T14:24:44.439Z,35.10
2019-04-05T14:27:14.750Z,36.50
2019-04-05T14:29:47.643Z,35.10
2019-04-05T14:32:21.774Z,35.30
2019-04-05T14:34:54.387Z,35.90
2019-04-05T14:37:25.104Z,35.90
2019-04-05T14:39:55.327Z,35.70
2019-04-05T14:42:25.463Z,35.50
2019-04-05T14:44:55.540Z,36.20
2019-04-05T14:47:27.783Z,36.50
2019-04-05T14:50:00.164Z,36.50
2019-04-05T14:52:31.053Z,36.10
2019-04-05T14:55:01.190Z,36.70
2019-04-05T14:57:32.615Z,36.40
2019-04-05T15:00:03.115Z,36.30
2019-04-05T15:02:33.182Z,36.10
2019-04-05T15:05:03.783Z,36.10
2019-04-05T15:07:34.062Z,36.60
2019-04-05T15:10:04.542Z,36.10
2019-04-05T15:12:34.626Z,36.00
2019-04-05T15:15:05.549Z,36.50
2019-04-05T15:17:47.215Z,36.30
2019-04-05T15:20:08.419Z,36.90
2019-04-05T15:22:41.532Z,35.90
2019-04-05T15:25:11.318Z,35.60
2019-04-05T15:27:41.523Z,35.40
2019-04-05T15:30:11.824Z,35.30
2019-04-05T15:32:43.203Z,35.60
2019-04-05T15:35:13.536Z,35.50
2019-04-05T15:37:43.900Z,36.00
2019-04-05T15:40:14.652Z,36.30
2019-04-05T15:42:45.126Z,36.10
2019-04-05T15:45:16.195Z,36.10
2019-04-05T15:47:47.649Z,36.50
2019-04-05T15:50:19.663Z,36.80
2019-04-05T15:52:50.626Z,37.40
2019-04-05T15:55:21.135Z,37.80
2019-04-05T15:57:51.518Z,38.80
2019-04-05T16:00:40.413Z,38.60
2019-04-05T16:03:14.019Z,38.90
2019-04-05T16:05:45.916Z,39.30
2019-04-05T16:08:19.095Z,39.80
2019-04-05T16:10:50.051Z,39.90
2019-04-05T16:13:21.178Z,41.20
2019-04-05T16:15:52.360Z,40.60
2019-04-05T16:18:22.884Z,41.50
2019-04-05T16:20:53.439Z,41.10
2019-04-05T16:23:23.819Z,41.10
2019-04-05T16:25:54.063Z,41.70
2019-04-05T16:28:24.444Z,42.00
2019-04-05T16:30:54.976Z,42.20
2019-04-05T16:33:25.361Z,42.50
2019-04-05T16:35:57.302Z,42.50
2019-04-05T16:38:28.223Z,43.20
2019-04-05T16:40:59.466Z,43.10
2019-04-05T16:43:30.561Z,43.40
2019-04-05T16:46:01.612Z,43.90
2019-04-05T16:48:33.671Z,44.20
2019-04-05T16:51:04.739Z,44.40
2019-04-05T16:53:37.865Z,44.40
2019-04-05T16:56:08.582Z,44.90
2019-04-05T16:58:38.811Z,45.40
2019-04-05T17:01:10.606Z,45.60
2019-04-05T17:03:41.707Z,46.10
2019-04-05T17:06:12.016Z,46.50
2019-04-05T17:08:45.345Z,46.70
2019-04-05T17:11:15.755Z,47.20
2019-04-05T17:13:47.904Z,47.50
2019-04-05T17:16:18.497Z,47.80
2019-04-05T17:18:49.080Z,48.20
2019-04-05T17:21:19.801Z,48.20
2019-04-05T17:23:50.919Z,48.40
2019-04-05T17:26:21.262Z,48.70
2019-04-05T17:28:51.637Z,49.00
2019-04-05T17:31:22.017Z,49.30
2019-04-05T17:33:52.378Z,49.60
2019-04-05T17:36:22.434Z,49.80
2019-04-05T17:38:52.509Z,49.90
2019-04-05T17:41:22.762Z,50.30
2019-04-05T17:43:53.133Z,50.70
2019-04-05T17:46:26.677Z,50.80
2019-04-05T17:48:56.739Z,51.00
2019-04-05T17:51:27.040Z,51.20
2019-04-05T17:53:57.358Z,51.50
2019-04-05T17:56:27.840Z,51.70
2019-04-05T17:58:58.511Z,51.80
2019-04-05T18:01:28.801Z,52.00
2019-04-05T18:03:59.093Z,52.70
2019-04-05T18:06:29.405Z,52.60
2019-04-05T18:09:00.566Z,52.60
2019-04-05T18:11:32.241Z,52.60
2019-04-05T18:14:02.383Z,52.90
2019-04-05T18:16:32.690Z,53.00
2019-04-05T18:19:02.853Z,53.20
2019-04-05T18:21:34.230Z,53.40
2019-04-05T18:24:04.524Z,53.60
2019-04-05T18:26:34.726Z,53.40
2019-04-05T18:29:04.875Z,53.70
2019-04-05T18:31:35.072Z,53.80
2019-04-05T18:34:05.385Z,53.90
2019-04-05T18:36:35.687Z,54.20
2019-04-05T18:39:07.920Z,54.30
2019-04-05T18:41:38.491Z,54.70
2019-04-05T18:44:09.645Z,54.60
2019-04-05T18:46:39.754Z,54.90
2019-04-05T18:49:10.143Z,54.90
2019-04-05T18:51:40.425Z,54.80
2019-04-05T18:54:12.231Z,55.20
2019-04-05T18:56:44.368Z,55.30
2019-04-05T18:59:14.562Z,55.50
2019-04-05T19:01:44.793Z,55.40
2019-04-05T19:04:14.987Z,55.50
2019-04-05T19:06:45.213Z,55.70
2019-04-05T19:09:16.239Z,55.70
2019-04-05T19:11:46.428Z,55.70
2019-04-05T19:14:16.796Z,55.70
2019-04-05T19:16:46.946Z,55.90
2019-04-05T19:19:17.922Z,56.30
2019-04-05T19:21:52.463Z,56.40
2019-04-05T19:24:22.743Z,56.40
2019-04-05T19:26:53.000Z,56.70
2019-04-05T19:29:24.310Z,56.80
2019-04-05T19:49:37.759Z,58.20
2019-04-05T19:52:07.971Z,57.90
2019-04-05T19:54:38.097Z,58.00
2019-04-05T19:57:08.219Z,58.10
2019-04-05T20:00:13.168Z,58.30
2019-04-05T20:03:07.578Z,58.30
2019-04-05T20:05:42.876Z,58.40
2019-04-05T20:08:13.298Z,58.60
2019-04-05T20:10:43.794Z,58.40
2019-04-05T20:13:14.899Z,58.60
2019-04-05T20:15:46.008Z,58.70
2019-04-05T20:18:16.061Z,58.90
2019-04-05T20:20:46.285Z,58.70
2019-04-05T20:23:16.475Z,59.20
2019-04-05T20:25:46.566Z,58.90
2019-04-05T20:28:16.726Z,59.30
2019-04-05T20:30:46.764Z,59.20
2019-04-05T20:33:17.038Z,59.30
2019-04-05T20:35:47.068Z,59.30
2019-04-05T20:38:20.258Z,59.60
2019-04-05T20:40:50.375Z,60.40
2019-04-05T20:43:20.608Z,59.90
2019-04-05T20:45:50.677Z,60.00
2019-04-05T20:48:20.868Z,60.20
2019-04-05T20:50:50.866Z,60.20
2019-04-05T20:53:20.982Z,60.60
2019-04-05T20:55:52.019Z,60.50
2019-04-05T20:58:22.129Z,60.60
2019-04-05T21:00:52.094Z,60.80
2019-04-05T21:03:22.150Z,61.10
2019-04-05T21:05:52.292Z,61.40
2019-04-05T21:08:22.316Z,61.20
2019-04-05T21:10:52.469Z,61.20
2019-04-05T21:13:22.642Z,61.10
2019-04-05T21:15:54.898Z,61.30
2019-04-05T21:18:24.966Z,61.40
2019-04-05T21:20:55.108Z,61.40
2019-04-05T21:23:25.253Z,61.70
2019-04-05T21:25:55.409Z,61.60
2019-04-05T21:28:25.508Z,62.10
2019-04-05T21:30:55.631Z,62.00
2019-04-05T21:33:25.742Z,62.10
2019-04-05T21:35:55.824Z,62.00
2019-04-05T21:38:25.817Z,62.10
2019-04-05T21:40:55.915Z,62.30
2019-04-05T21:43:27.109Z,62.30
2019-04-05T21:45:57.446Z,62.40
2019-04-05T21:48:27.548Z,62.60
2019-04-05T21:50:57.539Z,62.80
2019-04-05T21:53:27.685Z,62.80
2019-04-05T21:55:58.922Z,62.80
2019-04-05T21:58:29.046Z,63.00
2019-04-05T22:01:01.906Z,62.80
2019-04-05T22:03:33.842Z,62.80
2019-04-05T22:06:04.411Z,62.90
2019-04-05T22:08:34.487Z,63.00
2019-04-05T22:11:05.905Z,62.80
2019-04-05T22:13:36.283Z,63.10
2019-04-05T22:16:06.524Z,63.10
2019-04-05T22:18:36.504Z,62.80
2019-04-05T22:21:06.724Z,62.70
2019-04-05T22:23:36.875Z,62.80
2019-04-05T22:26:07.005Z,62.60
2019-04-05T22:28:37.032Z,62.50
2019-04-05T22:31:07.025Z,62.50
2019-04-05T22:33:37.106Z,62.50
2019-04-05T22:36:07.166Z,62.60
2019-04-05T22:38:37.246Z,63.00
2019-04-05T22:41:07.542Z,63.70
2019-04-05T22:43:37.635Z,63.80
2019-04-05T22:46:07.825Z,63.30
2019-04-05T22:48:38.032Z,63.30
2019-04-05T22:51:08.043Z,63.40
2019-04-05T22:53:38.079Z,63.60
2019-04-05T22:56:08.177Z,64.00
2019-04-05T22:58:38.232Z,64.00
2019-04-05T23:01:08.454Z,64.00
2019-04-05T23:03:38.579Z,65.30
2019-04-05T23:06:08.614Z,65.50
2019-04-05T23:08:38.592Z,65.90
2019-04-05T23:11:08.609Z,66.00
2019-04-05T23:13:38.559Z,66.40
2019-04-05T23:16:08.589Z,66.50
2019-04-05T23:18:38.633Z,66.70
2019-04-05T23:21:08.669Z,67.00
2019-04-05T23:23:38.823Z,67.10
2019-04-05T23:26:08.954Z,67.20
2019-04-05T23:28:39.071Z,67.60
2019-04-05T23:31:09.003Z,68.00
2019-04-05T23:33:39.022Z,68.50
2019-04-05T23:36:09.136Z,68.80
2019-04-05T23:38:39.168Z,69.20
2019-04-05T23:41:09.181Z,69.60
2019-04-05T23:43:39.207Z,69.80
2019-04-05T23:46:09.382Z,70.20
2019-04-05T23:48:39.386Z,70.60
2019-04-05T23:51:09.529Z,70.70
2019-04-05T23:53:39.691Z,71.00
2019-04-05T23:56:09.703Z,71.20
2019-04-05T23:58:39.695Z,71.40
